sensor_id;sensor_type;location;lat;lon;timestamp;pressure;altitude;pressure_sealevel;temperature;humidity
41044;BME280;51680;49.806;18.774;2023-03-11T00:01:18;94923.16;;;11.95;64.62
41044;BME280;51680;49.806;18.774;2023-03-11T00:04:20;94924.31;;;11.93;64.85
41044;BME280;51680;49.806;18.774;2023-03-11T00:07:24;94919.91;;;11.93;64.23
41044;BME280;51680;49.806;18.774;2023-03-11T00:10:29;94919.44;;;11.90;64.52
41044;BME280;51680;49.806;18.774;2023-03-11T00:13:31;94916.34;;;11.78;64.76
41044;BME280;51680;49.806;18.774;2023-03-11T00:16:33;94920.91;;;11.76;65.20
41044;BME280;51680;49.806;18.774;2023-03-11T00:19:34;94927.94;;;11.76;65.17
41044;BME280;51680;49.806;18.774;2023-03-11T00:22:37;94925.50;;;11.74;65.83
41044;BME280;51680;49.806;18.774;2023-03-11T00:25:41;94919.63;;;11.64;66.95
41044;BME280;51680;49.806;18.774;2023-03-11T00:28:43;94932.19;;;11.37;68.88
41044;BME280;51680;49.806;18.774;2023-03-11T00:31:45;94934.78;;;11.29;68.27
41044;BME280;51680;49.806;18.774;2023-03-11T00:34:46;94942.13;;;11.17;69.68
41044;BME280;51680;49.806;18.774;2023-03-11T00:37:52;94934.59;;;11.14;70.72
41044;BME280;51680;49.806;18.774;2023-03-11T00:40:55;94944.22;;;11.06;70.73
41044;BME280;51680;49.806;18.774;2023-03-11T00:43:56;94936.38;;;10.98;72.05
41044;BME280;51680;49.806;18.774;2023-03-11T00:46:58;94935.88;;;10.94;72.30
41044;BME280;51680;49.806;18.774;2023-03-11T00:50:00;94943.97;;;10.75;72.57
41044;BME280;51680;49.806;18.774;2023-03-11T00:53:04;94954.88;;;10.63;72.86
41044;BME280;51680;49.806;18.774;2023-03-11T00:56:07;94943.59;;;10.54;73.09
41044;BME280;51680;49.806;18.774;2023-03-11T00:59:09;94950.06;;;10.42;73.03
41044;BME280;51680;49.806;18.774;2023-03-11T01:02:11;94953.94;;;10.38;73.15
41044;BME280;51680;49.806;18.774;2023-03-11T01:05:14;94963.69;;;10.28;71.83
41044;BME280;51680;49.806;18.774;2023-03-11T01:08:17;94950.72;;;10.11;71.60
41044;BME280;51680;49.806;18.774;2023-03-11T01:11:19;94940.41;;;10.01;71.05
41044;BME280;51680;49.806;18.774;2023-03-11T01:14:21;94958.28;;;9.96;70.15
41044;BME280;51680;49.806;18.774;2023-03-11T01:17:22;94954.06;;;9.78;69.06
41044;BME280;51680;49.806;18.774;2023-03-11T01:20:24;94946.94;;;9.80;68.27
41044;BME280;51680;49.806;18.774;2023-03-11T01:23:28;94956.53;;;9.79;67.84
41044;BME280;51680;49.806;18.774;2023-03-11T01:26:31;94953.56;;;9.74;67.51
41044;BME280;51680;49.806;18.774;2023-03-11T01:29:33;94959.34;;;9.60;67.27
41044;BME280;51680;49.806;18.774;2023-03-11T01:32:37;94950.09;;;9.66;66.83
41044;BME280;51680;49.806;18.774;2023-03-11T01:35:40;94951.41;;;9.44;66.49
41044;BME280;51680;49.806;18.774;2023-03-11T01:38:44;94959.88;;;9.46;66.68
41044;BME280;51680;49.806;18.774;2023-03-11T01:41:46;94964.34;;;9.36;66.48
41044;BME280;51680;49.806;18.774;2023-03-11T01:44:48;94977.59;;;9.25;67.22
41044;BME280;51680;49.806;18.774;2023-03-11T01:47:53;94979.22;;;9.26;67.60
41044;BME280;51680;49.806;18.774;2023-03-11T01:50:56;94969.56;;;9.19;67.89
41044;BME280;51680;49.806;18.774;2023-03-11T01:54:02;94931.03;;;9.22;68.50
41044;BME280;51680;49.806;18.774;2023-03-11T01:57:06;94953.34;;;9.07;69.08
41044;BME280;51680;49.806;18.774;2023-03-11T02:00:12;94948.81;;;9.09;69.11
41044;BME280;51680;49.806;18.774;2023-03-11T02:03:18;94953.22;;;9.09;69.31
41044;BME280;51680;49.806;18.774;2023-03-11T02:06:23;94936.19;;;8.97;70.10
41044;BME280;51680;49.806;18.774;2023-03-11T02:09:28;94941.97;;;8.91;70.14
41044;BME280;51680;49.806;18.774;2023-03-11T02:12:33;94950.28;;;8.77;70.62
41044;BME280;51680;49.806;18.774;2023-03-11T02:15:36;94952.00;;;8.68;71.31
41044;BME280;51680;49.806;18.774;2023-03-11T02:18:37;94957.47;;;8.65;70.57
41044;BME280;51680;49.806;18.774;2023-03-11T02:21:39;94952.38;;;8.46;70.81
41044;BME280;51680;49.806;18.774;2023-03-11T02:24:47;94955.09;;;8.54;70.40
41044;BME280;51680;49.806;18.774;2023-03-11T02:27:53;94951.34;;;8.39;70.76
41044;BME280;51680;49.806;18.774;2023-03-11T02:30:57;94949.38;;;8.51;69.87
41044;BME280;51680;49.806;18.774;2023-03-11T02:34:01;94951.22;;;8.58;69.55
41044;BME280;51680;49.806;18.774;2023-03-11T02:37:07;94942.19;;;8.62;69.55
41044;BME280;51680;49.806;18.774;2023-03-11T02:43:53;94928.31;;;8.71;68.86
41044;BME280;51680;49.806;18.774;2023-03-11T02:46:58;94929.47;;;8.77;68.53
41044;BME280;51680;49.806;18.774;2023-03-11T02:50:00;94930.97;;;8.79;68.40
41044;BME280;51680;49.806;18.774;2023-03-11T02:53:04;94933.94;;;8.84;68.06
41044;BME280;51680;49.806;18.774;2023-03-11T02:56:06;94927.78;;;8.85;67.87
41044;BME280;51680;49.806;18.774;2023-03-11T02:59:10;94935.75;;;8.84;67.87
41044;BME280;51680;49.806;18.774;2023-03-11T03:02:12;94931.72;;;8.89;68.22
41044;BME280;51680;49.806;18.774;2023-03-11T03:05:14;94924.97;;;8.96;68.35
41044;BME280;51680;49.806;18.774;2023-03-11T03:08:16;94920.78;;;8.86;68.54
41044;BME280;51680;49.806;18.774;2023-03-11T03:11:18;94918.94;;;8.78;68.44
41044;BME280;51680;49.806;18.774;2023-03-11T03:14:21;94915.31;;;8.71;68.20
41044;BME280;51680;49.806;18.774;2023-03-11T03:17:23;94912.72;;;8.71;68.10
41044;BME280;51680;49.806;18.774;2023-03-11T03:20:25;94921.06;;;8.65;68.02
41044;BME280;51680;49.806;18.774;2023-03-11T03:23:31;94916.19;;;8.62;67.55
41044;BME280;51680;49.806;18.774;2023-03-11T03:26:35;94921.53;;;8.61;67.46
41044;BME280;51680;49.806;18.774;2023-03-11T03:29:38;94917.50;;;8.66;67.33
41044;BME280;51680;49.806;18.774;2023-03-11T03:32:40;94906.91;;;8.60;65.84
41044;BME280;51680;49.806;18.774;2023-03-11T03:35:46;94910.66;;;8.65;66.54
41044;BME280;51680;49.806;18.774;2023-03-11T03:38:56;94907.66;;;8.70;66.79
41044;BME280;51680;49.806;18.774;2023-03-11T03:42:03;94908.31;;;8.72;66.74
41044;BME280;51680;49.806;18.774;2023-03-11T03:45:10;94903.25;;;8.70;66.42
41044;BME280;51680;49.806;18.774;2023-03-11T03:48:12;94901.34;;;8.72;66.55
41044;BME280;51680;49.806;18.774;2023-03-11T03:51:17;94902.00;;;8.74;66.44
41044;BME280;51680;49.806;18.774;2023-03-11T03:54:33;94901.56;;;8.79;66.43
41044;BME280;51680;49.806;18.774;2023-03-11T03:57:35;94891.97;;;8.79;66.14
41044;BME280;51680;49.806;18.774;2023-03-11T04:00:39;94893.31;;;8.83;66.33
41044;BME280;51680;49.806;18.774;2023-03-11T04:03:40;94889.13;;;8.90;66.27
41044;BME280;51680;49.806;18.774;2023-03-11T04:06:45;94882.66;;;8.94;66.34
41044;BME280;51680;49.806;18.774;2023-03-11T04:09:47;94878.72;;;8.90;66.92
41044;BME280;51680;49.806;18.774;2023-03-11T04:12:50;94871.47;;;8.76;66.71
41044;BME280;51680;49.806;18.774;2023-03-11T04:15:54;94864.03;;;8.81;66.60
41044;BME280;51680;49.806;18.774;2023-03-11T04:18:56;94861.06;;;8.76;66.97
41044;BME280;51680;49.806;18.774;2023-03-11T04:21:58;94863.34;;;8.79;66.81
41044;BME280;51680;49.806;18.774;2023-03-11T04:25:00;94877.69;;;8.83;66.25
41044;BME280;51680;49.806;18.774;2023-03-11T04:28:05;94878.22;;;8.87;66.33
41044;BME280;51680;49.806;18.774;2023-03-11T04:31:09;94886.25;;;8.76;66.66
41044;BME280;51680;49.806;18.774;2023-03-11T04:34:12;94898.66;;;8.64;67.64
41044;BME280;51680;49.806;18.774;2023-03-11T04:37:14;94905.19;;;8.51;68.71
41044;BME280;51680;49.806;18.774;2023-03-11T04:40:16;94902.72;;;8.22;71.08
41044;BME280;51680;49.806;18.774;2023-03-11T04:43:19;94955.31;;;7.97;71.24
41044;BME280;51680;49.806;18.774;2023-03-11T04:46:22;94974.03;;;7.45;73.04
41044;BME280;51680;49.806;18.774;2023-03-11T04:49:23;94945.78;;;6.95;73.30
41044;BME280;51680;49.806;18.774;2023-03-11T04:52:26;94963.34;;;6.53;72.59
41044;BME280;51680;49.806;18.774;2023-03-11T04:55:28;94982.66;;;6.00;74.11
41044;BME280;51680;49.806;18.774;2023-03-11T04:58:30;94976.44;;;5.82;74.54
41044;BME280;51680;49.806;18.774;2023-03-11T05:01:33;94998.53;;;5.66;75.94
41044;BME280;51680;49.806;18.774;2023-03-11T05:04:37;94995.00;;;5.46;76.76
41044;BME280;51680;49.806;18.774;2023-03-11T05:07:39;94992.22;;;5.38;77.88
41044;BME280;51680;49.806;18.774;2023-03-11T05:10:42;94992.72;;;5.32;77.96
41044;BME280;51680;49.806;18.774;2023-03-11T05:13:44;94995.13;;;5.24;77.75
41044;BME280;51680;49.806;18.774;2023-03-11T05:16:48;94990.19;;;5.21;77.59
41044;BME280;51680;49.806;18.774;2023-03-11T05:19:51;94996.13;;;5.12;76.80
41044;BME280;51680;49.806;18.774;2023-03-11T05:23:11;94985.19;;;5.09;76.12
41044;BME280;51680;49.806;18.774;2023-03-11T05:26:13;95017.91;;;4.99;76.79
41044;BME280;51680;49.806;18.774;2023-03-11T05:29:17;95009.00;;;4.92;78.69
41044;BME280;51680;49.806;18.774;2023-03-11T05:32:22;95024.41;;;4.93;76.96
41044;BME280;51680;49.806;18.774;2023-03-11T05:35:25;95015.81;;;4.93;76.51
41044;BME280;51680;49.806;18.774;2023-03-11T05:38:27;95023.59;;;4.82;76.45
41044;BME280;51680;49.806;18.774;2023-03-11T05:41:29;95016.16;;;4.88;75.90
41044;BME280;51680;49.806;18.774;2023-03-11T05:44:32;95021.31;;;4.99;75.25
41044;BME280;51680;49.806;18.774;2023-03-11T05:47:54;95025.91;;;4.96;75.58
41044;BME280;51680;49.806;18.774;2023-03-11T05:50:55;95033.53;;;4.97;75.25
41044;BME280;51680;49.806;18.774;2023-03-11T05:53:57;95033.84;;;5.04;74.76
41044;BME280;51680;49.806;18.774;2023-03-11T05:57:08;95043.06;;;4.97;74.64
41044;BME280;51680;49.806;18.774;2023-03-11T06:00:11;95049.28;;;4.94;74.52
41044;BME280;51680;49.806;18.774;2023-03-11T06:03:23;95048.94;;;4.88;74.41
41044;BME280;51680;49.806;18.774;2023-03-11T06:06:25;95053.97;;;5.00;73.53
41044;BME280;51680;49.806;18.774;2023-03-11T06:09:27;95051.41;;;4.89;73.04
41044;BME280;51680;49.806;18.774;2023-03-11T06:12:30;95062.25;;;4.72;73.28
41044;BME280;51680;49.806;18.774;2023-03-11T06:15:44;95063.88;;;4.84;72.68
41044;BME280;51680;49.806;18.774;2023-03-11T06:18:47;95058.44;;;4.87;72.56
41044;BME280;51680;49.806;18.774;2023-03-11T06:21:50;95066.50;;;5.05;72.54
41044;BME280;51680;49.806;18.774;2023-03-11T06:24:52;95064.03;;;5.14;72.32
41044;BME280;51680;49.806;18.774;2023-03-11T06:27:54;95064.09;;;5.24;71.87
41044;BME280;51680;49.806;18.774;2023-03-11T06:31:05;95068.66;;;5.31;71.84
41044;BME280;51680;49.806;18.774;2023-03-11T06:34:10;95077.81;;;5.35;71.77
41044;BME280;51680;49.806;18.774;2023-03-11T06:37:12;95083.69;;;5.37;71.99
41044;BME280;51680;49.806;18.774;2023-03-11T06:40:14;95085.22;;;5.29;72.39
41044;BME280;51680;49.806;18.774;2023-03-11T06:43:16;95096.56;;;5.17;72.83
41044;BME280;51680;49.806;18.774;2023-03-11T06:46:21;95117.88;;;4.98;74.35
41044;BME280;51680;49.806;18.774;2023-03-11T06:49:27;95107.44;;;4.89;74.92
41044;BME280;51680;49.806;18.774;2023-03-11T06:52:28;95114.47;;;4.98;74.68
41044;BME280;51680;49.806;18.774;2023-03-11T06:55:30;95134.13;;;4.89;75.14
41044;BME280;51680;49.806;18.774;2023-03-11T06:58:35;95130.59;;;4.90;75.63
41044;BME280;51680;49.806;18.774;2023-03-11T07:01:37;95142.09;;;4.53;79.50
41044;BME280;51680;49.806;18.774;2023-03-11T07:04:42;95145.50;;;4.65;76.85
41044;BME280;51680;49.806;18.774;2023-03-11T07:07:44;95145.88;;;4.60;77.59
41044;BME280;51680;49.806;18.774;2023-03-11T07:10:45;95155.75;;;4.55;78.07
41044;BME280;51680;49.806;18.774;2023-03-11T07:13:50;95173.09;;;4.42;79.18
41044;BME280;51680;49.806;18.774;2023-03-11T07:16:52;95172.97;;;4.44;78.57
41044;BME280;51680;49.806;18.774;2023-03-11T07:20:05;95179.88;;;4.32;80.01
41044;BME280;51680;49.806;18.774;2023-03-11T07:23:07;95170.03;;;4.37;79.78
41044;BME280;51680;49.806;18.774;2023-03-11T07:26:09;95176.38;;;4.33;79.94
41044;BME280;51680;49.806;18.774;2023-03-11T07:29:11;95182.22;;;4.35;80.13
41044;BME280;51680;49.806;18.774;2023-03-11T07:32:13;95184.59;;;4.38;79.33
41044;BME280;51680;49.806;18.774;2023-03-11T07:35:16;95193.50;;;4.34;79.88
41044;BME280;51680;49.806;18.774;2023-03-11T07:38:18;95201.13;;;4.36;79.76
41044;BME280;51680;49.806;18.774;2023-03-11T07:41:20;95209.94;;;4.44;79.34
41044;BME280;51680;49.806;18.774;2023-03-11T07:44:21;95214.41;;;4.42;79.41
41044;BME280;51680;49.806;18.774;2023-03-11T07:47:23;95209.00;;;4.45;79.52
41044;BME280;51680;49.806;18.774;2023-03-11T07:50:26;95228.25;;;4.41;79.12
41044;BME280;51680;49.806;18.774;2023-03-11T07:53:28;95230.00;;;4.41;79.28
41044;BME280;51680;49.806;18.774;2023-03-11T07:56:31;95218.16;;;4.38;79.93
41044;BME280;51680;49.806;18.774;2023-03-11T07:59:33;95229.44;;;4.37;79.34
41044;BME280;51680;49.806;18.774;2023-03-11T08:02:35;95227.78;;;4.36;79.26
41044;BME280;51680;49.806;18.774;2023-03-11T08:05:38;95232.00;;;4.37;79.05
41044;BME280;51680;49.806;18.774;2023-03-11T08:08:59;95231.91;;;4.39;79.10
41044;BME280;51680;49.806;18.774;2023-03-11T08:12:01;95250.75;;;4.28;79.39
41044;BME280;51680;49.806;18.774;2023-03-11T08:15:04;95243.72;;;4.30;79.60
41044;BME280;51680;49.806;18.774;2023-03-11T08:18:06;95250.53;;;4.31;79.99
41044;BME280;51680;49.806;18.774;2023-03-11T08:21:12;95255.47;;;4.34;79.04
41044;BME280;51680;49.806;18.774;2023-03-11T08:24:14;95279.81;;;4.19;80.01
41044;BME280;51680;49.806;18.774;2023-03-11T08:27:16;95268.94;;;4.27;79.15
41044;BME280;51680;49.806;18.774;2023-03-11T08:30:19;95287.84;;;4.27;79.57
41044;BME280;51680;49.806;18.774;2023-03-11T08:33:20;95288.31;;;4.32;79.19
41044;BME280;51680;49.806;18.774;2023-03-11T08:36:23;95292.56;;;4.33;79.45
41044;BME280;51680;49.806;18.774;2023-03-11T08:39:25;95305.47;;;4.33;79.15
41044;BME280;51680;49.806;18.774;2023-03-11T08:42:27;95306.50;;;4.31;79.28
41044;BME280;51680;49.806;18.774;2023-03-11T08:45:29;95311.28;;;4.24;79.01
41044;BME280;51680;49.806;18.774;2023-03-11T08:48:31;95310.84;;;4.30;79.47
41044;BME280;51680;49.806;18.774;2023-03-11T08:51:34;95322.88;;;4.42;78.73
41044;BME280;51680;49.806;18.774;2023-03-11T08:54:36;95335.91;;;4.52;78.71
41044;BME280;51680;49.806;18.774;2023-03-11T08:57:38;95343.84;;;4.72;78.40
41044;BME280;51680;49.806;18.774;2023-03-11T09:00:40;95321.56;;;4.71;78.27
41044;BME280;51680;49.806;18.774;2023-03-11T09:03:41;95352.16;;;4.65;78.41
41044;BME280;51680;49.806;18.774;2023-03-11T09:06:44;95342.09;;;4.73;78.52
41044;BME280;51680;49.806;18.774;2023-03-11T09:09:48;95364.31;;;4.75;78.06
41044;BME280;51680;49.806;18.774;2023-03-11T09:12:49;95370.91;;;4.79;78.27
41044;BME280;51680;49.806;18.774;2023-03-11T09:15:52;95378.19;;;4.85;77.96
41044;BME280;51680;49.806;18.774;2023-03-11T09:18:54;95401.59;;;4.95;78.02
41044;BME280;51680;49.806;18.774;2023-03-11T09:21:59;95401.75;;;5.04;77.33
41044;BME280;51680;49.806;18.774;2023-03-11T09:25:01;95417.00;;;5.07;77.48
41044;BME280;51680;49.806;18.774;2023-03-11T09:28:03;95408.09;;;5.11;77.67
41044;BME280;51680;49.806;18.774;2023-03-11T09:31:05;95407.88;;;5.14;77.10
41044;BME280;51680;49.806;18.774;2023-03-11T09:34:07;95409.19;;;5.20;77.17
41044;BME280;51680;49.806;18.774;2023-03-11T09:37:10;95410.00;;;5.20;76.80
41044;BME280;51680;49.806;18.774;2023-03-11T09:40:14;95426.69;;;5.16;77.09
41044;BME280;51680;49.806;18.774;2023-03-11T09:43:25;95403.66;;;5.13;77.05
41044;BME280;51680;49.806;18.774;2023-03-11T09:47:08;95436.06;;;5.06;77.90
41044;BME280;51680;49.806;18.774;2023-03-11T09:50:30;95444.06;;;5.03;77.42
41044;BME280;51680;49.806;18.774;2023-03-11T09:53:38;95442.53;;;5.01;77.36
41044;BME280;51680;49.806;18.774;2023-03-11T09:56:41;95445.66;;;4.93;77.53
41044;BME280;51680;49.806;18.774;2023-03-11T09:59:45;95454.34;;;4.92;77.90
41044;BME280;51680;49.806;18.774;2023-03-11T10:02:48;95454.66;;;4.77;78.31
41044;BME280;51680;49.806;18.774;2023-03-11T10:05:50;95476.56;;;4.71;78.56
41044;BME280;51680;49.806;18.774;2023-03-11T10:08:58;95477.00;;;4.65;78.42
41044;BME280;51680;49.806;18.774;2023-03-11T10:12:15;95473.69;;;4.63;78.82
41044;BME280;51680;49.806;18.774;2023-03-11T10:15:23;95499.31;;;4.66;78.79
41044;BME280;51680;49.806;18.774;2023-03-11T10:18:36;95503.06;;;4.62;78.38
41044;BME280;51680;49.806;18.774;2023-03-11T10:21:49;95509.22;;;4.72;78.36
41044;BME280;51680;49.806;18.774;2023-03-11T10:25:02;95516.03;;;4.73;78.79
41044;BME280;51680;49.806;18.774;2023-03-11T10:28:11;95538.13;;;4.77;78.33
41044;BME280;51680;49.806;18.774;2023-03-11T10:31:19;95535.50;;;4.66;78.92
41044;BME280;51680;49.806;18.774;2023-03-11T10:34:25;95541.91;;;4.61;79.01
41044;BME280;51680;49.806;18.774;2023-03-11T10:37:32;95553.72;;;4.52;78.68
41044;BME280;51680;49.806;18.774;2023-03-11T10:40:40;95561.56;;;4.51;78.80
41044;BME280;51680;49.806;18.774;2023-03-11T10:43:44;95560.72;;;4.63;78.47
41044;BME280;51680;49.806;18.774;2023-03-11T10:46:49;95570.44;;;4.59;78.20
41044;BME280;51680;49.806;18.774;2023-03-11T10:54:28;95599.19;;;4.42;78.73
41044;BME280;51680;49.806;18.774;2023-03-11T10:57:34;95602.38;;;4.46;78.35
41044;BME280;51680;49.806;18.774;2023-03-11T11:00:37;95621.22;;;4.48;78.37
41044;BME280;51680;49.806;18.774;2023-03-11T11:03:40;95626.47;;;4.46;78.28
41044;BME280;51680;49.806;18.774;2023-03-11T11:06:42;95620.69;;;4.55;78.23
41044;BME280;51680;49.806;18.774;2023-03-11T11:09:44;95623.56;;;4.51;78.17
41044;BME280;51680;49.806;18.774;2023-03-11T11:12:52;95640.28;;;4.45;78.98
41044;BME280;51680;49.806;18.774;2023-03-11T11:20:55;95641.31;;;4.43;79.13
41044;BME280;51680;49.806;18.774;2023-03-11T11:24:04;95654.75;;;4.35;79.13
41044;BME280;51680;49.806;18.774;2023-03-11T11:27:15;95661.38;;;4.39;78.95
41044;BME280;51680;49.806;18.774;2023-03-11T11:30:18;95670.78;;;4.40;78.88
41044;BME280;51680;49.806;18.774;2023-03-11T11:33:23;95679.88;;;4.33;79.03
41044;BME280;51680;49.806;18.774;2023-03-11T11:36:28;95665.00;;;4.24;79.01
41044;BME280;51680;49.806;18.774;2023-03-11T11:39:35;95672.94;;;4.21;79.47
41044;BME280;51680;49.806;18.774;2023-03-11T11:42:44;95690.72;;;4.26;79.20
41044;BME280;51680;49.806;18.774;2023-03-11T11:45:53;95687.00;;;4.30;78.82
41044;BME280;51680;49.806;18.774;2023-03-11T11:49:06;95712.81;;;4.30;79.05
41044;BME280;51680;49.806;18.774;2023-03-11T11:52:13;95712.00;;;4.29;78.57
41044;BME280;51680;49.806;18.774;2023-03-11T11:55:37;95718.78;;;4.30;77.92
41044;BME280;51680;49.806;18.774;2023-03-11T11:58:40;95724.19;;;4.27;78.08
41044;BME280;51680;49.806;18.774;2023-03-11T12:01:50;95735.31;;;4.28;77.75
41044;BME280;51680;49.806;18.774;2023-03-11T12:04:59;95744.84;;;4.27;78.05
41044;BME280;51680;49.806;18.774;2023-03-11T12:08:13;95738.94;;;4.25;78.53
41044;BME280;51680;49.806;18.774;2023-03-11T12:11:21;95741.50;;;4.25;78.10
41044;BME280;51680;49.806;18.774;2023-03-11T12:14:26;95764.63;;;4.14;78.10
41044;BME280;51680;49.806;18.774;2023-03-11T12:17:34;95753.78;;;4.09;78.52
41044;BME280;51680;49.806;18.774;2023-03-11T12:20:40;95780.72;;;4.05;77.77
41044;BME280;51680;49.806;18.774;2023-03-11T12:23:53;95783.78;;;3.98;78.70
41044;BME280;51680;49.806;18.774;2023-03-11T12:27:02;95800.72;;;4.02;77.55
41044;BME280;51680;49.806;18.774;2023-03-11T12:30:13;95818.91;;;4.00;77.68
41044;BME280;51680;49.806;18.774;2023-03-11T12:33:24;95826.09;;;3.95;77.74
41044;BME280;51680;49.806;18.774;2023-03-11T12:36:29;95822.16;;;3.90;77.64
41044;BME280;51680;49.806;18.774;2023-03-11T12:39:33;95828.69;;;3.95;77.29
41044;BME280;51680;49.806;18.774;2023-03-11T12:42:38;95831.25;;;3.95;77.52
41044;BME280;51680;49.806;18.774;2023-03-11T12:45:47;95839.72;;;3.97;77.28
41044;BME280;51680;49.806;18.774;2023-03-11T12:49:08;95845.31;;;4.04;77.12
41044;BME280;51680;49.806;18.774;2023-03-11T12:52:28;95841.53;;;4.09;76.96
41044;BME280;51680;49.806;18.774;2023-03-11T12:55:33;95859.78;;;4.06;76.33
41044;BME280;51680;49.806;18.774;2023-03-11T12:58:58;95863.53;;;4.02;76.75
41044;BME280;51680;49.806;18.774;2023-03-11T13:02:12;95869.34;;;3.92;77.16
41044;BME280;51680;49.806;18.774;2023-03-11T13:05:27;95880.78;;;3.88;77.15
41044;BME280;51680;49.806;18.774;2023-03-11T13:08:36;95883.06;;;3.92;76.42
41044;BME280;51680;49.806;18.774;2023-03-11T13:11:45;95902.97;;;3.90;76.45
41044;BME280;51680;49.806;18.774;2023-03-11T13:14:48;95907.50;;;3.87;77.36
41044;BME280;51680;49.806;18.774;2023-03-11T13:18:17;95915.44;;;3.84;77.64
41044;BME280;51680;49.806;18.774;2023-03-11T13:21:39;95926.75;;;3.81;78.33
41044;BME280;51680;49.806;18.774;2023-03-11T13:24:49;95929.25;;;3.83;78.21
41044;BME280;51680;49.806;18.774;2023-03-11T13:27:58;95930.91;;;3.84;77.79
41044;BME280;51680;49.806;18.774;2023-03-11T13:31:15;95928.25;;;3.85;77.85
41044;BME280;51680;49.806;18.774;2023-03-11T13:34:27;95944.28;;;3.76;77.71
41044;BME280;51680;49.806;18.774;2023-03-11T13:37:43;95963.06;;;3.78;78.25
41044;BME280;51680;49.806;18.774;2023-03-11T13:40:51;95947.97;;;3.72;77.78
41044;BME280;51680;49.806;18.774;2023-03-11T13:44:15;95965.09;;;3.73;77.55
41044;BME280;51680;49.806;18.774;2023-03-11T13:47:34;95975.06;;;3.79;77.66
41044;BME280;51680;49.806;18.774;2023-03-11T13:50:55;95979.38;;;3.79;77.59
41044;BME280;51680;49.806;18.774;2023-03-11T13:54:29;95991.56;;;3.63;78.73
41044;BME280;51680;49.806;18.774;2023-03-11T13:57:35;96004.69;;;3.58;77.89
41044;BME280;51680;49.806;18.774;2023-03-11T14:00:46;96004.25;;;3.66;78.08
41044;BME280;51680;49.806;18.774;2023-03-11T14:03:48;96012.75;;;3.68;77.25
41044;BME280;51680;49.806;18.774;2023-03-11T14:06:51;96015.03;;;3.72;76.80
41044;BME280;51680;49.806;18.774;2023-03-11T14:10:15;96031.84;;;3.79;77.04
41044;BME280;51680;49.806;18.774;2023-03-11T14:13:18;96034.97;;;3.84;76.62
41044;BME280;51680;49.806;18.774;2023-03-11T14:16:21;96037.09;;;3.92;77.08
41044;BME280;51680;49.806;18.774;2023-03-11T14:19:24;96050.06;;;3.90;76.97
41044;BME280;51680;49.806;18.774;2023-03-11T14:22:45;96053.22;;;3.95;76.85
41044;BME280;51680;49.806;18.774;2023-03-11T14:26:06;96058.84;;;4.02;76.36
41044;BME280;51680;49.806;18.774;2023-03-11T14:29:29;96059.47;;;4.05;76.10
41044;BME280;51680;49.806;18.774;2023-03-11T14:32:59;96062.44;;;4.13;75.97
41044;BME280;51680;49.806;18.774;2023-03-11T14:36:02;96060.50;;;4.17;76.76
41044;BME280;51680;49.806;18.774;2023-03-11T14:39:04;96070.38;;;4.24;75.28
41044;BME280;51680;49.806;18.774;2023-03-11T14:42:13;96067.78;;;4.24;74.60
41044;BME280;51680;49.806;18.774;2023-03-11T14:45:21;96071.38;;;4.22;74.08
41044;BME280;51680;49.806;18.774;2023-03-11T14:48:26;96075.72;;;4.21;74.09
41044;BME280;51680;49.806;18.774;2023-03-11T14:51:31;96073.41;;;4.17;74.09
41044;BME280;51680;49.806;18.774;2023-03-11T14:54:35;96081.44;;;4.12;73.84
41044;BME280;51680;49.806;18.774;2023-03-11T14:57:41;96069.16;;;4.02;73.96
41044;BME280;51680;49.806;18.774;2023-03-11T15:00:48;96088.25;;;3.99;74.03
41044;BME280;51680;49.806;18.774;2023-03-11T15:03:53;96100.03;;;3.89;74.02
41044;BME280;51680;49.806;18.774;2023-03-11T15:06:58;96095.44;;;3.94;74.20
41044;BME280;51680;49.806;18.774;2023-03-11T15:10:00;96103.53;;;3.88;74.04
41044;BME280;51680;49.806;18.774;2023-03-11T15:13:07;96106.69;;;3.93;74.32
41044;BME280;51680;49.806;18.774;2023-03-11T15:16:21;96115.81;;;3.99;74.42
41044;BME280;51680;49.806;18.774;2023-03-11T15:19:31;96126.44;;;4.08;74.44
41044;BME280;51680;49.806;18.774;2023-03-11T15:22:36;96131.69;;;4.07;74.74
41044;BME280;51680;49.806;18.774;2023-03-11T15:25:38;96138.31;;;3.97;75.75
41044;BME280;51680;49.806;18.774;2023-03-11T15:28:42;96143.72;;;3.92;76.00
41044;BME280;51680;49.806;18.774;2023-03-11T15:32:23;96154.69;;;3.82;77.66
41044;BME280;51680;49.806;18.774;2023-03-11T15:35:27;96161.00;;;3.76;77.24
41044;BME280;51680;49.806;18.774;2023-03-11T15:38:29;96149.38;;;3.69;77.78
41044;BME280;51680;49.806;18.774;2023-03-11T15:41:31;96163.53;;;3.62;77.66
41044;BME280;51680;49.806;18.774;2023-03-11T15:44:36;96165.47;;;3.59;77.89
41044;BME280;51680;49.806;18.774;2023-03-11T15:47:40;96188.09;;;3.54;77.69
41044;BME280;51680;49.806;18.774;2023-03-11T15:51:01;96167.97;;;3.45;77.58
41044;BME280;51680;49.806;18.774;2023-03-11T15:54:03;96176.16;;;3.37;77.61
41044;BME280;51680;49.806;18.774;2023-03-11T15:57:08;96179.56;;;3.38;77.04
41044;BME280;51680;49.806;18.774;2023-03-11T16:00:17;96202.66;;;3.39;77.02
41044;BME280;51680;49.806;18.774;2023-03-11T16:03:20;96201.50;;;3.29;76.97
41044;BME280;51680;49.806;18.774;2023-03-11T16:06:22;96208.16;;;3.33;76.75
41044;BME280;51680;49.806;18.774;2023-03-11T16:09:23;96201.94;;;3.37;76.77
41044;BME280;51680;49.806;18.774;2023-03-11T16:12:25;96208.25;;;3.32;76.20
41044;BME280;51680;49.806;18.774;2023-03-11T16:15:30;96213.31;;;3.33;76.51
41044;BME280;51680;49.806;18.774;2023-03-11T16:18:32;96226.13;;;3.35;76.38
41044;BME280;51680;49.806;18.774;2023-03-11T16:21:37;96235.59;;;3.34;76.48
41044;BME280;51680;49.806;18.774;2023-03-11T16:24:40;96233.09;;;3.33;76.54
41044;BME280;51680;49.806;18.774;2023-03-11T16:27:42;96239.09;;;3.33;76.70
41044;BME280;51680;49.806;18.774;2023-03-11T16:30:48;96252.78;;;3.35;76.84
41044;BME280;51680;49.806;18.774;2023-03-11T16:33:50;96243.59;;;3.30;77.00
41044;BME280;51680;49.806;18.774;2023-03-11T16:36:52;96264.47;;;3.25;77.20